Canadian Empress — VX6095 — position and weather

sailwx.info

Track history (hours):
 
Tides and Currents Weather Stations Pressure Air Temp Water Temp Dewpoint Dewpoint Depression Visibility Wind Speed Wind Dir Waves Ship Positions

Canadian Empress

Last reported at 2014-Sep-15 17:12 UTC. Time now 2014-Sep-17 01:34 UTC.
Position N 45°14' W 074°02'.

Length 30 m.

Type: Passenger vessel. MMSI: 314954012.

Date/timePositionNaut miles runAvg speedWind from/ knotsBaromVisibWave heightAir tempDewpointWater temp
2014-Sep-15 17:12N 45°14' W 074°02'6 8.4
2014-Sep-15 16:31N 45°18' W 073°56'1 1.5
2014-Sep-15 15:32N 45°19' W 073°55'2 2.1
2014-Sep-15 14:33N 45°21' W 073°53'7 7.5
2014-Sep-15 13:33N 45°24' W 073°44'6 6.1
2014-Sep-15 12:33N 45°24' W 073°35'2 1.7
2014-Sep-15 11:33N 45°24' W 073°33'5 0.3
2014-Sep-14 19:20N 45°30' W 073°33'0 0.1
2014-Sep-14 18:33N 45°30' W 073°33'6 5.7
2014-Sep-14 17:33N 45°35' W 073°30'13 6.7
2014-Sep-14 15:34N 45°47' W 073°21'8 8.4
2014-Sep-14 14:33N 45°54' W 073°14'39 2.0
2014-Sep-13 18:33N 46°21' W 072°32'5 4.7
2014-Sep-13 17:33N 46°23' W 072°26'8 8.1
2014-Sep-13 16:33N 46°27' W 072°16'1 0.0
2014-Sep-12 10:33N 46°27' W 072°15'1212.0
2014-Sep-12 09:33N 46°21' W 072°30'2 0.2
2014-Sep-12 00:33N 46°20' W 072°32'0 0.0
2014-Sep-11 23:33N 46°20' W 072°32'0 0.0
2014-Sep-11 22:33N 46°20' W 072°32'0 0.0
2014-Sep-11 18:33N 46°20' W 072°32'2 2.3
2014-Sep-11 17:33N 46°18' W 072°34'7 7.5
2014-Sep-11 16:33N 46°15' W 072°44'40 9.9
2014-Sep-11 12:28N 45°46' W 073°23'1010.8
2014-Sep-11 11:33N 45°37' W 073°30'7 7.2
2014-Sep-11 10:33N 45°30' W 073°33'0 0.0
2014-Sep-10 18:33N 45°30' W 073°33'4 4.2
2014-Sep-10 17:33N 45°34' W 073°31'4 4.5
2014-Sep-10 16:33N 45°29' W 073°31'5 4.7
2014-Sep-10 15:24N 45°24' W 073°34'5 5.7
2014-Sep-10 14:33N 45°25' W 073°41'10 9.8
2014-Sep-10 13:33N 45°20' W 073°53'3 2.9
2014-Sep-10 12:33N 45°18' W 073°56'3 2.7
2014-Sep-10 11:25N 45°15' W 073°58'13 0.9
2014-Sep-09 21:33N 45°13' W 074°16'  
2014-Sep-07 00:04N 44°15' W 076°23'5 9.5
2014-Sep-06 23:33N 44°13' W 076°29'1 0.9
2014-Sep-06 22:33N 44°14' W 076°29'0 0.0
2014-Sep-06 21:33N 44°14' W 076°29'0 0.0
2014-Sep-06 20:33N 44°14' W 076°29'0 0.0
2014-Sep-06 19:33N 44°14' W 076°29'0 0.0
2014-Sep-06 18:33N 44°14' W 076°29'2 2.2
2014-Sep-06 17:33N 44°14' W 076°26'7 6.9
2014-Sep-06 16:32N 44°15' W 076°16'  
Track history (hours):
 
Tides and Currents Weather Stations Pressure Air Temp Water Temp Dewpoint Dewpoint Depression Visibility Wind Speed Wind Dir Waves Ship Positions

Canadian Empress

Last reported at 2014-Sep-15 17:12 UTC. Time now 2014-Sep-17 01:34 UTC.
Position N 45°14' W 074°02'.

Length 30 m.

Type: Passenger vessel. MMSI: 314954012.

Date/timePositionNaut miles runAvg speedWind from/ knotsBaromVisibWave heightAir tempDewpointWater temp
2014-Sep-15 17:12N 45°14' W 074°02'6 8.4
2014-Sep-15 16:31N 45°18' W 073°56'1 1.5
2014-Sep-15 15:32N 45°19' W 073°55'2 2.1
2014-Sep-15 14:33N 45°21' W 073°53'7 7.5
2014-Sep-15 13:33N 45°24' W 073°44'6 6.1
2014-Sep-15 12:33N 45°24' W 073°35'2 1.7
2014-Sep-15 11:33N 45°24' W 073°33'5 0.3
2014-Sep-14 19:20N 45°30' W 073°33'0 0.1
2014-Sep-14 18:33N 45°30' W 073°33'6 5.7
2014-Sep-14 17:33N 45°35' W 073°30'13 6.7
2014-Sep-14 15:34N 45°47' W 073°21'8 8.4
2014-Sep-14 14:33N 45°54' W 073°14'39 2.0
2014-Sep-13 18:33N 46°21' W 072°32'5 4.7
2014-Sep-13 17:33N 46°23' W 072°26'8 8.1
2014-Sep-13 16:33N 46°27' W 072°16'1 0.0
2014-Sep-12 10:33N 46°27' W 072°15'1212.0
2014-Sep-12 09:33N 46°21' W 072°30'2 0.2
2014-Sep-12 00:33N 46°20' W 072°32'0 0.0
2014-Sep-11 23:33N 46°20' W 072°32'0 0.0
2014-Sep-11 22:33N 46°20' W 072°32'0 0.0
2014-Sep-11 18:33N 46°20' W 072°32'2 2.3
2014-Sep-11 17:33N 46°18' W 072°34'7 7.5
2014-Sep-11 16:33N 46°15' W 072°44'40 9.9
2014-Sep-11 12:28N 45°46' W 073°23'1010.8
2014-Sep-11 11:33N 45°37' W 073°30'7 7.2
2014-Sep-11 10:33N 45°30' W 073°33'0 0.0
2014-Sep-10 18:33N 45°30' W 073°33'4 4.2
2014-Sep-10 17:33N 45°34' W 073°31'4 4.5
2014-Sep-10 16:33N 45°29' W 073°31'5 4.7
2014-Sep-10 15:24N 45°24' W 073°34'5 5.7
2014-Sep-10 14:33N 45°25' W 073°41'10 9.8
2014-Sep-10 13:33N 45°20' W 073°53'3 2.9
2014-Sep-10 12:33N 45°18' W 073°56'3 2.7
2014-Sep-10 11:25N 45°15' W 073°58'13 0.9
2014-Sep-09 21:33N 45°13' W 074°16'  
2014-Sep-07 00:04N 44°15' W 076°23'5 9.5
2014-Sep-06 23:33N 44°13' W 076°29'1 0.9
2014-Sep-06 22:33N 44°14' W 076°29'0 0.0
2014-Sep-06 21:33N 44°14' W 076°29'0 0.0
2014-Sep-06 20:33N 44°14' W 076°29'0 0.0
2014-Sep-06 19:33N 44°14' W 076°29'0 0.0
2014-Sep-06 18:33N 44°14' W 076°29'2 2.2
2014-Sep-06 17:33N 44°14' W 076°26'7 6.9
2014-Sep-06 16:32N 44°15' W 076°16'  

Dump ship's entire track history